createdAt,value
2023-05-10T00:01:45.745Z,93923.16
2023-05-10T00:04:14.264Z,93923.41
2023-05-10T00:06:41.270Z,93930.47
2023-05-10T00:09:08.149Z,93920.72
2023-05-10T00:11:35.087Z,93918.06
2023-05-10T00:14:02.121Z,93919.00
2023-05-10T00:16:29.167Z,93915.66
2023-05-10T00:18:56.161Z,93912.66
2023-05-10T00:21:24.456Z,93910.53
2023-05-10T00:23:51.392Z,93907.06
2023-05-10T00:26:18.352Z,93911.38
2023-05-10T00:28:50.875Z,93903.41
2023-05-10T00:31:18.714Z,93902.81
2023-05-10T00:33:45.658Z,93908.84
2023-05-10T00:36:12.545Z,93903.34
2023-05-10T00:38:41.496Z,93900.34
2023-05-10T00:41:09.051Z,93901.16
2023-05-10T00:43:37.568Z,93900.00
2023-05-10T00:46:05.011Z,93893.81
2023-05-10T00:48:32.934Z,93892.22
2023-05-10T00:50:59.874Z,93895.31
2023-05-10T00:53:26.972Z,93891.66
2023-05-10T00:55:55.425Z,93889.00
2023-05-10T00:58:24.359Z,93886.44
2023-05-10T01:00:52.035Z,93886.44
2023-05-10T01:03:19.598Z,93886.56
2023-05-10T01:05:46.522Z,93891.03
2023-05-10T01:08:13.434Z,93885.09
2023-05-10T01:10:40.496Z,93890.78
2023-05-10T01:13:10.406Z,93888.34
2023-05-10T01:15:37.842Z,93881.22
2023-05-10T01:18:04.993Z,93883.88
2023-05-10T01:20:38.264Z,93878.88
2023-05-10T01:23:29.570Z,93872.72
2023-05-10T01:26:16.296Z,93878.13
2023-05-10T01:29:10.936Z,93872.88
2023-05-10T01:32:22.733Z,93874.34
2023-05-10T01:34:57.061Z,93861.81
2023-05-10T01:37:32.783Z,93867.88
2023-05-10T01:40:04.424Z,93861.16
2023-05-10T01:42:38.225Z,93858.19
2023-05-10T01:45:11.160Z,93855.63
2023-05-10T01:47:41.246Z,93858.06
2023-05-10T01:50:11.963Z,93853.75
2023-05-10T01:52:42.793Z,93851.19
2023-05-10T01:55:13.442Z,93851.88
2023-05-10T01:57:41.453Z,93846.59
2023-05-10T02:00:09.654Z,93851.06
2023-05-10T02:02:46.619Z,93855.94
2023-05-10T02:05:16.426Z,93851.00
2023-05-10T02:07:43.597Z,93846.81
2023-05-10T02:10:11.574Z,93847.25
2023-05-10T02:12:40.948Z,93846.81
2023-05-10T02:15:09.157Z,93848.31
2023-05-10T02:17:37.394Z,93844.94
2023-05-10T02:20:08.770Z,93840.53
2023-05-10T02:22:38.071Z,93850.69
2023-05-10T02:25:05.960Z,93847.03
2023-05-10T02:27:32.969Z,93849.72
2023-05-10T02:30:00.065Z,93848.53
2023-05-10T02:32:28.179Z,93847.22
2023-05-10T02:34:56.000Z,93850.72
2023-05-10T02:37:23.313Z,93849.41
2023-05-10T02:39:52.212Z,93849.41
2023-05-10T02:42:20.063Z,93851.03
2023-05-10T02:44:49.438Z,93839.44
2023-05-10T02:47:16.463Z,93840.25
2023-05-10T02:49:43.528Z,93846.31
2023-05-10T02:52:11.282Z,93844.81
2023-05-10T02:54:42.250Z,93837.97
2023-05-10T02:57:14.466Z,93830.47
2023-05-10T02:59:43.767Z,93828.56
2023-05-10T03:02:11.386Z,93825.47
2023-05-10T03:04:38.454Z,93834.47
2023-05-10T03:07:05.789Z,93834.75
2023-05-10T03:09:33.199Z,93829.78
2023-05-10T03:12:04.547Z,93830.19
2023-05-10T03:14:44.979Z,93830.84
2023-05-10T03:17:16.934Z,93835.00
2023-05-10T03:19:51.968Z,93836.91
2023-05-10T03:22:23.127Z,93829.91
2023-05-10T03:24:50.355Z,93835.00
2023-05-10T03:27:18.010Z,93836.91
2023-05-10T03:29:47.528Z,93840.53
2023-05-10T03:32:14.692Z,93837.56
2023-05-10T03:34:43.378Z,93838.13
2023-05-10T03:37:10.278Z,93847.53
2023-05-10T03:39:37.386Z,93852.63
2023-05-10T03:42:07.021Z,93857.75
2023-05-10T03:44:34.413Z,93858.81
2023-05-10T03:47:03.135Z,93855.31
2023-05-10T03:49:30.578Z,93868.63
2023-05-10T03:51:57.649Z,93861.75
2023-05-10T03:54:24.600Z,93863.09
2023-05-10T03:56:51.697Z,93876.94
2023-05-10T03:59:20.040Z,93881.25
2023-05-10T04:01:46.988Z,93881.13
2023-05-10T04:04:15.409Z,93880.97
2023-05-10T04:06:42.473Z,93889.72
2023-05-10T04:09:10.169Z,93884.63
2023-05-10T04:11:37.166Z,93884.47
2023-05-10T04:14:04.133Z,93888.66
2023-05-10T04:16:31.072Z,93894.69
2023-05-10T04:18:58.419Z,93889.03
2023-05-10T04:21:26.742Z,93880.56
2023-05-10T04:23:53.620Z,93892.00
2023-05-10T04:26:21.308Z,93882.09
2023-05-10T04:28:48.185Z,93883.94
2023-05-10T04:31:15.281Z,93882.19
2023-05-10T04:33:42.266Z,93886.09
2023-05-10T04:36:09.710Z,93885.16
2023-05-10T04:38:38.112Z,93896.59
2023-05-10T04:41:06.206Z,93899.00
2023-05-10T04:43:33.189Z,93885.97
2023-05-10T04:46:00.280Z,93881.56
2023-05-10T04:48:27.871Z,93879.38
2023-05-10T04:50:55.072Z,93884.34
2023-05-10T04:53:22.005Z,93880.59
2023-05-10T04:55:50.320Z,93887.84
2023-05-10T04:58:17.404Z,93883.31
2023-05-10T05:00:45.179Z,93881.97
2023-05-10T05:03:12.435Z,93883.72
2023-05-10T05:05:39.518Z,93883.97
2023-05-10T05:08:06.403Z,93884.78
2023-05-10T05:10:33.526Z,93897.84
2023-05-10T05:13:01.922Z,93890.69
2023-05-10T05:15:31.683Z,93893.13
2023-05-10T05:17:58.996Z,93898.34
2023-05-10T05:20:29.161Z,93901.06
2023-05-10T05:22:57.284Z,93899.03
2023-05-10T05:25:25.807Z,93902.53
2023-05-10T05:27:53.536Z,93900.38
2023-05-10T05:30:24.475Z,93900.34
2023-05-10T05:32:52.360Z,93909.34
2023-05-10T05:35:19.597Z,93911.25
2023-05-10T05:37:46.674Z,93915.81
2023-05-10T05:40:14.320Z,93922.16
2023-05-10T05:42:41.213Z,93927.53
2023-05-10T05:45:09.870Z,93913.81
2023-05-10T05:47:38.042Z,93923.09
2023-05-10T05:50:06.113Z,93925.13
2023-05-10T05:52:33.022Z,93921.91
2023-05-10T05:54:59.956Z,93931.44
2023-05-10T05:57:27.689Z,93937.63
2023-05-10T05:59:54.627Z,93939.81
2023-05-10T06:02:21.806Z,93939.41
2023-05-10T06:04:50.204Z,93936.69
2023-05-10T06:07:17.540Z,93934.13
2023-05-10T06:09:44.422Z,93936.56
2023-05-10T06:12:12.716Z,93932.25
2023-05-10T06:14:39.738Z,93932.78
2023-05-10T06:17:07.789Z,93943.84
2023-05-10T06:19:34.773Z,93939.00
2023-05-10T06:22:03.025Z,93931.28
2023-05-10T06:24:30.004Z,93938.97
2023-05-10T06:26:57.038Z,93939.78
2023-05-10T06:29:23.932Z,93941.25
2023-05-10T06:31:51.097Z,93939.75
2023-05-10T06:34:18.007Z,93944.84
2023-05-10T06:36:45.282Z,93949.28
2023-05-10T06:39:13.758Z,93953.59
2023-05-10T06:41:40.717Z,93948.25
2023-05-10T06:44:07.623Z,93947.28
2023-05-10T06:46:34.601Z,93946.59
2023-05-10T06:49:01.573Z,93939.16
2023-05-10T06:51:28.439Z,93944.41
2023-05-10T06:53:55.334Z,93941.72
2023-05-10T06:56:23.812Z,93944.41
2023-05-10T06:58:50.860Z,93941.31
2023-05-10T07:01:17.882Z,93947.09
2023-05-10T07:03:44.868Z,93954.50
2023-05-10T07:06:21.585Z,93948.84
2023-05-10T07:08:52.643Z,93952.34
2023-05-10T07:11:19.643Z,93949.94
2023-05-10T07:13:47.925Z,93947.22
2023-05-10T07:16:14.943Z,93952.63
2023-05-10T07:18:41.897Z,93959.41
2023-05-10T07:21:09.791Z,93958.31
2023-05-10T07:23:36.963Z,93959.63
2023-05-10T07:26:04.128Z,93955.22
2023-05-10T07:28:31.145Z,93956.31
2023-05-10T07:30:59.647Z,93955.63
2023-05-10T07:33:26.694Z,93967.06
2023-05-10T07:35:53.672Z,93969.47
2023-05-10T07:38:20.526Z,93969.19
2023-05-10T07:40:47.415Z,93962.84
2023-05-10T07:43:14.308Z,93961.91
2023-05-10T07:45:41.248Z,93971.47
2023-05-10T07:48:09.877Z,93970.16
2023-05-10T07:50:36.811Z,93975.53
2023-05-10T07:53:03.705Z,93968.66
2023-05-10T07:55:30.960Z,93974.94
2023-05-10T07:57:58.214Z,93978.59
2023-05-10T08:00:25.126Z,93978.75
2023-05-10T08:02:52.110Z,93982.25
2023-05-10T08:05:20.406Z,93978.28
2023-05-10T08:07:47.397Z,93971.56
2023-05-10T08:10:14.356Z,93978.56
2023-05-10T08:12:41.360Z,93974.22
2023-05-10T08:15:09.816Z,93978.81
2023-05-10T08:17:36.793Z,93977.19
2023-05-10T08:20:04.212Z,93978.25
2023-05-10T08:22:32.574Z,93977.84
2023-05-10T08:24:59.520Z,93980.25
2023-05-10T08:27:26.633Z,93977.28
2023-05-10T08:29:53.616Z,93979.41
2023-05-10T08:32:20.702Z,93984.91
2023-05-10T08:34:47.661Z,93986.66
2023-05-10T08:37:14.787Z,93988.28
2023-05-10T08:39:43.238Z,93988.84
2023-05-10T08:42:10.773Z,93989.91
2023-05-10T08:44:38.157Z,93982.72
2023-05-10T08:47:07.829Z,93988.25
2023-05-10T08:49:35.079Z,93987.94
2023-05-10T08:52:05.029Z,93998.41
2023-05-10T08:54:33.163Z,93992.88
2023-05-10T08:57:01.603Z,93992.19
2023-05-10T08:59:29.063Z,93990.56
2023-05-10T09:01:57.289Z,93985.63
2023-05-10T09:04:24.285Z,93983.56
2023-05-10T09:06:51.786Z,93986.56
2023-05-10T09:09:18.979Z,93992.56
2023-05-10T09:11:45.969Z,93993.38
2023-05-10T09:14:14.675Z,93987.81
2023-05-10T09:16:42.550Z,93982.59
2023-05-10T09:19:10.745Z,93987.66
2023-05-10T09:21:39.292Z,93976.31
2023-05-10T09:24:06.752Z,93982.53
2023-05-10T09:26:34.306Z,93979.31
2023-05-10T09:29:01.583Z,93978.88
2023-05-10T09:31:48.045Z,93979.56
2023-05-10T09:34:19.052Z,93975.81
2023-05-10T09:36:53.560Z,93970.91
2023-05-10T09:39:21.067Z,93975.06
2023-05-10T09:41:48.312Z,93974.13
2023-05-10T09:44:18.937Z,93971.72
2023-05-10T09:46:52.016Z,93978.44
2023-05-10T09:49:19.259Z,93971.84
2023-05-10T09:51:46.413Z,93976.69
2023-05-10T09:54:14.488Z,93977.69
2023-05-10T09:56:41.932Z,93979.44
2023-05-10T09:59:10.938Z,93976.56
2023-05-10T10:01:38.198Z,93972.06
2023-05-10T10:04:08.353Z,93962.66
2023-05-10T10:06:38.731Z,93966.50
2023-05-10T10:09:06.548Z,93963.13
2023-05-10T10:11:34.799Z,93954.03
2023-05-10T10:14:02.019Z,93953.41
2023-05-10T10:16:30.253Z,93955.28
2023-05-10T10:18:57.335Z,93941.66
2023-05-10T10:21:26.143Z,93949.50
2023-05-10T10:23:54.102Z,93956.63
2023-05-10T10:26:22.141Z,93945.31
2023-05-10T10:28:53.323Z,93955.59
2023-05-10T10:31:29.233Z,93947.66
2023-05-10T10:34:03.565Z,93957.84
2023-05-10T10:36:34.265Z,93952.63
2023-05-10T10:39:02.416Z,93951.69
2023-05-10T10:41:31.876Z,93957.25
2023-05-10T10:44:28.368Z,93959.75
2023-05-10T10:47:03.716Z,93954.38
2023-05-10T10:49:32.905Z,93955.84
2023-05-10T10:52:24.316Z,93961.28
2023-05-10T10:54:52.352Z,93960.47
2023-05-10T10:57:20.326Z,93959.56
2023-05-10T10:59:47.495Z,93959.91
2023-05-10T11:02:36.335Z,93959.38
2023-05-10T11:05:25.042Z,93959.91
2023-05-10T11:07:57.374Z,93957.84
2023-05-10T11:10:24.905Z,93957.34
2023-05-10T11:13:01.938Z,93957.81
2023-05-10T11:15:32.552Z,93950.44
2023-05-10T11:17:59.857Z,93950.13
2023-05-10T11:20:35.978Z,93953.19
2023-05-10T11:23:16.799Z,93958.94
2023-05-10T11:25:46.934Z,93958.22
2023-05-10T11:28:14.033Z,93957.13
2023-05-10T11:30:42.424Z,93959.19
2023-05-10T11:33:09.918Z,93955.66
2023-05-10T11:35:42.992Z,93966.63
2023-05-10T11:38:11.552Z,93957.91
2023-05-10T11:40:40.666Z,93961.09
2023-05-10T11:43:09.774Z,93964.97
2023-05-10T11:45:36.905Z,93965.94
2023-05-10T11:48:04.002Z,93960.50
2023-05-10T11:50:31.053Z,93959.69
2023-05-10T11:52:58.363Z,93959.38
2023-05-10T11:55:25.439Z,93965.19
2023-05-10T11:57:56.488Z,93953.19
2023-05-10T12:00:23.600Z,93952.84
2023-05-10T12:02:51.194Z,93959.69
2023-05-10T12:05:18.415Z,93959.56
2023-05-10T12:07:45.784Z,93957.00
2023-05-10T12:10:16.208Z,93954.13
2023-05-10T12:12:45.078Z,93956.91
2023-05-10T12:15:13.606Z,93951.28
2023-05-10T12:17:43.726Z,93950.78
2023-05-10T12:20:21.735Z,93949.25
2023-05-10T12:22:52.769Z,93945.56
2023-05-10T12:25:20.042Z,93948.94
2023-05-10T12:27:50.724Z,93943.31
2023-05-10T12:30:23.261Z,93940.69
2023-05-10T12:32:50.703Z,93948.81
2023-05-10T12:35:18.142Z,93935.97
2023-05-10T12:37:45.059Z,93933.09
2023-05-10T12:40:12.674Z,93932.00
2023-05-10T12:42:41.045Z,93935.06
2023-05-10T12:45:09.366Z,93937.84
2023-05-10T12:47:38.143Z,93930.25
2023-05-10T12:50:06.268Z,93925.38
2023-05-10T12:52:33.346Z,93925.25
2023-05-10T12:55:00.840Z,93926.28
2023-05-10T12:57:28.811Z,93922.81
2023-05-10T12:59:56.121Z,93921.63
2023-05-10T13:02:24.146Z,93920.47
2023-05-10T13:04:53.106Z,93917.69
2023-05-10T13:07:20.096Z,93920.25
2023-05-10T13:09:47.046Z,93901.44
2023-05-10T13:12:14.255Z,93906.34
2023-05-10T13:14:41.729Z,93909.53
2023-05-10T13:17:08.757Z,93914.22
2023-05-10T13:19:36.068Z,93914.91
2023-05-10T13:22:04.447Z,93912.72
2023-05-10T13:24:31.418Z,93907.06
2023-05-10T13:26:59.130Z,93893.00
2023-05-10T13:29:26.125Z,93897.69
2023-05-10T13:31:53.209Z,93897.25
2023-05-10T13:34:21.561Z,93896.59
2023-05-10T13:36:48.843Z,93898.28
2023-05-10T13:39:17.818Z,93894.09
2023-05-10T13:41:44.753Z,93886.59
2023-05-10T13:44:13.494Z,93888.88
2023-05-10T13:46:40.583Z,93878.13
2023-05-10T13:49:07.630Z,93878.19
2023-05-10T13:51:35.046Z,93881.41
2023-05-10T13:54:02.113Z,93882.78
2023-05-10T13:56:43.555Z,93887.19
2023-05-10T13:59:10.319Z,93887.75
2023-05-10T14:01:37.597Z,93886.28
2023-05-10T14:04:04.829Z,93884.88
2023-05-10T14:06:31.782Z,93890.38
2023-05-10T14:08:58.745Z,93891.81
2023-05-10T14:11:25.819Z,93891.31
2023-05-10T14:13:54.208Z,93886.38
2023-05-10T14:16:21.406Z,93886.38
2023-05-10T14:18:48.495Z,93893.72
2023-05-10T14:21:16.346Z,93884.53
2023-05-10T14:23:43.307Z,93885.19
2023-05-10T14:26:10.464Z,93888.56
2023-05-10T14:28:37.543Z,93886.25
2023-05-10T14:31:06.566Z,93883.84
2023-05-10T14:33:33.450Z,93888.22
2023-05-10T14:36:01.053Z,93885.03
2023-05-10T14:38:28.236Z,93886.84
2023-05-10T14:40:55.087Z,93899.38
2023-05-10T14:43:22.112Z,93887.69
2023-05-10T14:45:49.259Z,93888.63
2023-05-10T14:48:18.502Z,93888.63
2023-05-10T14:50:47.127Z,93890.25
2023-05-10T14:53:36.105Z,93898.06
2023-05-10T14:56:03.937Z,93895.25
2023-05-10T14:58:34.430Z,93887.56
2023-05-10T15:01:01.873Z,93891.38
2023-05-10T15:03:31.011Z,93885.47
2023-05-10T15:05:58.943Z,93885.34
2023-05-10T15:08:26.018Z,93884.66
2023-05-10T15:10:53.106Z,93879.25
2023-05-10T15:13:20.043Z,93876.97
2023-05-10T15:15:47.064Z,93875.28
2023-05-10T15:18:14.091Z,93865.28
2023-05-10T15:20:42.442Z,93869.63
2023-05-10T15:23:09.387Z,93859.88
2023-05-10T15:25:38.201Z,93855.97
2023-05-10T15:28:05.645Z,93865.75
2023-05-10T15:30:32.773Z,93861.72
2023-05-10T15:33:00.082Z,93856.28
2023-05-10T15:35:27.166Z,93854.06
2023-05-10T15:37:55.442Z,93858.72
2023-05-10T15:40:22.509Z,93857.09
2023-05-10T15:42:49.477Z,93871.03
2023-05-10T15:45:17.010Z,93862.34
2023-05-10T15:47:45.248Z,93860.06
2023-05-10T15:50:12.921Z,93857.59
2023-05-10T15:52:39.817Z,93857.75
2023-05-10T15:55:13.251Z,93858.81
2023-05-10T15:57:41.420Z,93858.00
2023-05-10T16:00:09.819Z,93860.69
2023-05-10T16:02:40.082Z,93864.75
2023-05-10T16:05:07.628Z,93852.38
2023-05-10T16:07:34.575Z,93867.31
2023-05-10T16:10:04.197Z,93871.94
2023-05-10T16:12:32.556Z,93868.41
2023-05-10T16:14:59.528Z,93873.16
2023-05-10T16:17:26.752Z,93875.91
2023-05-10T16:19:53.786Z,93863.22
2023-05-10T16:22:22.336Z,93873.34
2023-05-10T16:24:49.888Z,93866.91
2023-05-10T16:27:17.516Z,93868.34
2023-05-10T16:29:47.018Z,93873.13
2023-05-10T16:32:14.041Z,93863.34
2023-05-10T16:34:41.022Z,93864.16
2023-05-10T16:37:08.014Z,93859.56
2023-05-10T16:39:34.900Z,93859.69
2023-05-10T16:42:01.755Z,93863.06
2023-05-10T16:44:28.800Z,93858.09
2023-05-10T16:46:57.030Z,93862.03
2023-05-10T16:49:26.190Z,93861.78
2023-05-10T16:51:53.297Z,93861.31
2023-05-10T16:54:21.408Z,93867.41
2023-05-10T16:56:48.334Z,93861.69
2023-05-10T16:59:15.261Z,93859.88
2023-05-10T17:01:42.264Z,93858.13
2023-05-10T17:04:10.919Z,93861.81
2023-05-10T17:06:37.894Z,93861.69
2023-05-10T17:09:05.771Z,93865.66
2023-05-10T17:11:33.064Z,93862.41
2023-05-10T17:14:01.485Z,93859.69
2023-05-10T17:16:30.059Z,93865.78
2023-05-10T17:18:57.179Z,93864.97
2023-05-10T17:21:25.541Z,93871.38
2023-05-10T17:23:52.463Z,93873.63
2023-05-10T17:26:19.324Z,93871.06
2023-05-10T17:28:46.250Z,93871.22
2023-05-10T17:31:13.197Z,93882.78
2023-05-10T17:33:40.313Z,93873.63
2023-05-10T17:36:07.898Z,93874.75
2023-05-10T17:38:36.203Z,93885.34
2023-05-10T17:41:03.192Z,93881.19
2023-05-10T17:43:30.213Z,93877.81
2023-05-10T17:45:57.292Z,93886.31
2023-05-10T17:48:24.364Z,93886.81
2023-05-10T17:50:51.665Z,93885.34
2023-05-10T17:53:19.452Z,93890.03
2023-05-10T17:55:47.815Z,93888.28
2023-05-10T17:58:14.746Z,93890.19
2023-05-10T18:00:41.609Z,93889.22
2023-05-10T18:03:08.650Z,93901.25
2023-05-10T18:05:36.438Z,93901.13
2023-05-10T18:08:04.145Z,93904.31
2023-05-10T18:10:31.210Z,93901.97
2023-05-10T18:12:59.544Z,93906.44
2023-05-10T18:15:27.699Z,93904.53
2023-05-10T18:17:56.009Z,93908.41
2023-05-10T18:20:22.936Z,93907.47
2023-05-10T18:22:49.960Z,93907.91
2023-05-10T18:25:17.579Z,93903.22
2023-05-10T18:27:44.715Z,93909.63
2023-05-10T18:30:14.492Z,93913.63
2023-05-10T18:32:41.865Z,93914.75
2023-05-10T18:35:09.644Z,93917.16
2023-05-10T18:37:36.921Z,93923.91
2023-05-10T18:40:05.079Z,93926.34
2023-05-10T18:42:32.215Z,93931.50
2023-05-10T18:44:59.226Z,93928.13
2023-05-10T18:47:27.731Z,93929.91
2023-05-10T18:49:55.212Z,93936.97
2023-05-10T18:52:22.436Z,93936.16
2023-05-10T18:54:49.599Z,93932.41
2023-05-10T18:57:16.775Z,93927.94
2023-05-10T18:59:43.676Z,93928.44
2023-05-10T19:02:10.893Z,93931.97
2023-05-10T19:04:39.388Z,93934.88
2023-05-10T19:07:06.446Z,93935.03
2023-05-10T19:09:33.464Z,93936.88
2023-05-10T19:12:00.641Z,93935.56
2023-05-10T19:14:27.985Z,93930.25
2023-05-10T19:16:55.144Z,93954.34
2023-05-10T19:19:23.935Z,93936.50
2023-05-10T19:21:52.328Z,93937.16
2023-05-10T19:24:21.714Z,93933.94
2023-05-10T19:26:49.429Z,93934.88
2023-05-10T19:29:16.568Z,93936.56
2023-05-10T19:31:44.890Z,93935.75
2023-05-10T19:34:11.887Z,93939.88
2023-05-10T19:36:38.808Z,93941.78
2023-05-10T19:39:07.209Z,93938.56
2023-05-10T19:41:34.132Z,93938.25
2023-05-10T19:44:01.255Z,93943.25
2023-05-10T19:46:28.333Z,93945.97
2023-05-10T19:48:55.645Z,93935.69
2023-05-10T19:51:22.586Z,93943.19
2023-05-10T19:53:49.542Z,93936.00
2023-05-10T19:56:18.499Z,93935.47
2023-05-10T19:58:45.653Z,93925.03
2023-05-10T20:01:13.190Z,93921.78
2023-05-10T20:03:40.504Z,93920.84
2023-05-10T20:06:07.483Z,93919.06
2023-05-10T20:08:34.362Z,93917.31
2023-05-10T20:11:02.784Z,93919.06
2023-05-10T20:13:31.271Z,93909.31
2023-05-10T20:15:58.389Z,93914.59
2023-05-10T20:18:25.396Z,93913.50
2023-05-10T20:20:56.080Z,93910.47
2023-05-10T20:23:23.261Z,93914.22
2023-05-10T20:25:50.294Z,93917.22
2023-05-10T20:28:21.361Z,93918.19
2023-05-10T20:30:53.053Z,93926.84
2023-05-10T20:33:20.710Z,93928.44
2023-05-10T20:35:47.846Z,93913.19
2023-05-10T20:38:14.777Z,93922.16
2023-05-10T20:40:41.928Z,93929.72
2023-05-10T20:43:08.937Z,93921.34
2023-05-10T20:45:37.529Z,93920.75
2023-05-10T20:48:06.845Z,93930.34
2023-05-10T20:50:33.848Z,93925.88
2023-05-10T20:53:01.095Z,93916.63
2023-05-10T20:55:28.318Z,93936.66
2023-05-10T20:57:55.389Z,93923.63
2023-05-10T21:00:22.292Z,93921.06
2023-05-10T21:02:49.249Z,93928.22
2023-05-10T21:05:18.907Z,93923.09
2023-05-10T21:07:45.897Z,93922.59
2023-05-10T21:10:12.890Z,93922.28
2023-05-10T21:12:40.063Z,93920.53
2023-05-10T21:15:08.675Z,93923.75
2023-05-10T21:17:35.773Z,93931.69
2023-05-10T21:20:02.766Z,93922.16
2023-05-10T21:22:31.038Z,93921.69
2023-05-10T21:24:57.955Z,93925.22
2023-05-10T21:27:25.005Z,93929.53
2023-05-10T21:29:52.197Z,93926.97
2023-05-10T21:32:20.168Z,93920.69
2023-05-10T21:34:47.050Z,93932.03
2023-05-10T21:37:15.485Z,93928.53
2023-05-10T21:39:43.830Z,93929.13
2023-05-10T21:42:10.778Z,93923.19
2023-05-10T21:44:38.756Z,93921.56
2023-05-10T21:47:05.724Z,93923.13
2023-05-10T21:49:32.640Z,93926.41
2023-05-10T21:51:59.521Z,93920.47
2023-05-10T21:54:26.362Z,93921.28
2023-05-10T21:56:54.705Z,93925.03
2023-05-10T21:59:21.800Z,93923.25
2023-05-10T22:01:48.914Z,93926.59
2023-05-10T22:04:16.030Z,93921.66
2023-05-10T22:06:43.021Z,93917.59
2023-05-10T22:09:10.201Z,93918.22
2023-05-10T22:11:37.178Z,93919.16
2023-05-10T22:14:05.475Z,93912.63
2023-05-10T22:16:32.392Z,93918.25
2023-05-10T22:18:59.393Z,93910.56
2023-05-10T22:21:26.358Z,93913.28
2023-05-10T22:23:53.215Z,93917.75
2023-05-10T22:26:20.149Z,93921.91
2023-05-10T22:28:47.086Z,93916.97
2023-05-10T22:31:15.442Z,93915.03
2023-05-10T22:33:42.351Z,93913.00
2023-05-10T22:36:09.464Z,93913.78
2023-05-10T22:38:36.489Z,93904.94
2023-05-10T22:41:03.424Z,93915.84
2023-05-10T22:43:30.314Z,93918.03
2023-05-10T22:45:57.669Z,93909.53
2023-05-10T22:48:25.942Z,93917.22
2023-05-10T22:50:52.818Z,93902.81
2023-05-10T22:53:19.754Z,93897.69
2023-05-10T22:55:47.240Z,93905.22
2023-05-10T22:58:14.182Z,93902.16
2023-05-10T23:00:41.309Z,93902.16
2023-05-10T23:03:08.365Z,93895.41
2023-05-10T23:05:36.644Z,93902.28
2023-05-10T23:08:03.719Z,93894.31
2023-05-10T23:10:30.897Z,93897.00
2023-05-10T23:12:57.941Z,93891.56
2023-05-10T23:15:24.814Z,93893.28
2023-05-10T23:17:51.939Z,93886.53
2023-05-10T23:20:19.148Z,93886.69
2023-05-10T23:22:47.734Z,93883.03
2023-05-10T23:25:14.652Z,93879.28
2023-05-10T23:27:41.600Z,93880.22
2023-05-10T23:30:09.564Z,93881.03
2023-05-10T23:32:36.491Z,93877.84
2023-05-10T23:35:03.709Z,93876.34
2023-05-10T23:37:30.650Z,93876.06
2023-05-10T23:39:59.183Z,93867.03
2023-05-10T23:42:26.388Z,93861.72
2023-05-10T23:44:53.264Z,93867.66
2023-05-10T23:47:20.174Z,93860.41
2023-05-10T23:49:47.138Z,93861.34
2023-05-10T23:52:14.109Z,93860.31
2023-05-10T23:54:41.297Z,93861.94
2023-05-10T23:57:09.714Z,93851.31
2023-05-10T23:59:36.592Z,93859.13
